Metar z połowy godziny Komunikat METAR ze strony awiacja.imgw.pl Metar G00 EPRZ METAR EPRZ 230330Z 20013KT 9999 -SHRA FEW034CB 09/04 Q0999 =